createdAt,value
2024-04-18T00:07:20.657Z,2.30
2024-04-18T00:16:03.696Z,2.14
2024-04-18T00:24:29.311Z,1.94
2024-04-18T00:32:52.350Z,1.86
2024-04-18T00:41:33.081Z,1.79
2024-04-18T00:49:55.868Z,1.63
2024-04-18T00:58:34.632Z,1.56
2024-04-18T01:07:14.727Z,1.45
2024-04-18T01:15:43.310Z,1.27
2024-04-18T01:24:06.094Z,1.01
2024-04-18T01:32:30.277Z,0.91
2024-04-18T01:40:53.531Z,0.88
2024-04-18T01:49:34.949Z,0.75
2024-04-18T01:57:57.648Z,0.53
2024-04-18T02:06:28.522Z,0.44
2024-04-18T02:14:51.214Z,0.39
2024-04-18T02:23:13.895Z,0.22
2024-04-18T02:31:45.397Z,0.04
2024-04-18T02:40:23.381Z,-0.03
2024-04-18T02:48:58.145Z,-0.08
2024-04-18T02:57:21.068Z,-0.22
2024-04-18T03:05:43.620Z,-0.42
2024-04-18T03:14:20.188Z,-0.46
2024-04-18T03:23:03.221Z,-0.47
2024-04-18T03:31:25.689Z,-0.60
2024-04-18T03:39:48.537Z,-0.68
2024-04-18T03:48:11.298Z,-0.63
2024-04-18T03:56:39.599Z,-0.64
2024-04-18T04:05:02.117Z,-0.65
2024-04-18T04:13:24.742Z,-0.46
2024-04-18T04:22:07.193Z,-0.19
2024-04-18T04:30:29.775Z,-0.01
2024-04-18T04:38:52.517Z,0.22
2024-04-18T04:47:30.491Z,0.42
2024-04-18T04:55:53.788Z,0.53
2024-04-18T05:04:16.483Z,0.80
2024-04-18T05:12:39.281Z,1.00
2024-04-18T05:21:01.893Z,1.17
2024-04-18T05:29:42.641Z,1.40
2024-04-18T05:38:05.250Z,1.61
2024-04-18T05:46:27.797Z,2.05
2024-04-18T05:54:50.399Z,2.49
2024-04-18T06:03:30.346Z,2.72
2024-04-18T06:11:53.061Z,3.13
2024-04-18T06:20:16.059Z,3.37
2024-04-18T06:28:38.744Z,3.75
2024-04-18T06:37:08.097Z,3.99
2024-04-18T06:45:31.106Z,4.25
2024-04-18T06:53:53.720Z,4.69
2024-04-18T07:02:16.327Z,5.10
2024-04-18T07:11:00.711Z,5.78
2024-04-18T07:19:23.751Z,6.20
2024-04-18T07:27:52.257Z,6.20
2024-04-18T07:36:15.000Z,5.99
2024-04-18T07:44:37.667Z,6.13
2024-04-18T07:53:09.166Z,6.94
2024-04-18T08:01:34.374Z,7.35
2024-04-18T08:10:02.957Z,7.45
2024-04-18T08:18:29.015Z,7.31
2024-04-18T08:26:51.664Z,7.52
2024-04-18T08:35:17.541Z,7.67
2024-04-18T08:43:45.121Z,7.80
2024-04-18T08:52:10.420Z,8.05
2024-04-18T09:00:34.348Z,8.34
2024-04-18T09:09:01.514Z,8.23
2024-04-18T09:17:24.463Z,8.24
2024-04-18T09:25:53.225Z,8.48
2024-04-18T09:34:16.921Z,8.11
2024-04-18T09:42:51.250Z,8.20
2024-04-18T09:51:16.175Z,8.54
2024-04-18T09:59:39.789Z,8.77
2024-04-18T10:08:04.007Z,8.86
2024-04-18T10:16:26.570Z,9.33
2024-04-18T10:24:52.548Z,9.59
2024-04-18T10:33:15.348Z,10.17
2024-04-18T10:41:46.225Z,10.34
2024-04-18T10:50:09.621Z,10.35
2024-04-18T10:58:32.577Z,10.36
2024-04-18T11:06:55.244Z,11.46
2024-04-18T11:15:18.400Z,11.33
2024-04-18T11:23:47.146Z,13.40
2024-04-18T11:32:12.789Z,19.34
2024-04-18T11:40:35.518Z,17.44
2024-04-18T11:48:58.357Z,16.11
2024-04-18T11:57:21.096Z,14.59
2024-04-18T12:05:50.944Z,12.18
2024-04-18T12:14:14.458Z,11.64
2024-04-18T12:22:52.191Z,9.74
2024-04-18T12:31:14.991Z,8.29
2024-04-18T12:39:49.027Z,9.80
2024-04-18T12:48:20.786Z,10.40
2024-04-18T12:56:50.922Z,15.46
2024-04-18T13:05:19.355Z,17.30
2024-04-18T13:13:59.424Z,18.13
2024-04-18T13:22:21.926Z,20.18
2024-04-18T13:30:44.483Z,19.49
2024-04-18T13:39:26.998Z,14.26
2024-04-18T13:48:02.722Z,9.57
2024-04-18T13:56:38.496Z,7.45
2024-04-18T14:05:10.551Z,6.47
2024-04-18T14:13:55.971Z,6.61
2024-04-18T14:22:27.681Z,8.02
2024-04-18T14:30:50.338Z,8.77
2024-04-18T14:39:12.933Z,8.16
2024-04-18T14:47:35.641Z,7.77
2024-04-18T14:55:59.180Z,7.78
2024-04-18T15:04:22.092Z,8.15
2024-04-18T15:13:03.872Z,8.03
2024-04-18T15:21:33.676Z,7.62
2024-04-18T15:30:09.306Z,7.56
2024-04-18T15:38:33.485Z,7.49
2024-04-18T15:47:12.994Z,7.68
2024-04-18T15:55:45.895Z,8.20
2024-04-18T16:04:26.228Z,10.33
2024-04-18T16:13:00.850Z,10.56
2024-04-18T16:21:25.004Z,11.58
2024-04-18T16:29:51.331Z,10.67
2024-04-18T16:38:37.829Z,9.01
2024-04-18T16:47:02.547Z,7.77
2024-04-18T16:55:28.244Z,8.16
2024-04-18T17:04:11.532Z,8.69
2024-04-18T17:12:35.589Z,7.80
2024-04-18T17:21:17.888Z,6.86
2024-04-18T17:29:41.510Z,6.18
2024-04-18T17:38:07.562Z,5.89
2024-04-18T17:46:51.720Z,5.80
2024-04-18T17:55:19.380Z,5.63
2024-04-18T18:03:44.052Z,5.35
2024-04-18T18:12:08.507Z,5.16
2024-04-18T18:20:48.048Z,5.01
2024-04-18T18:29:12.175Z,4.74
2024-04-18T18:37:55.863Z,4.55
2024-04-18T18:46:19.399Z,4.55
2024-04-18T18:54:43.274Z,4.67
2024-04-18T19:03:07.255Z,4.70
2024-04-18T19:11:40.402Z,4.68
2024-04-18T19:20:05.542Z,4.63
2024-04-18T19:28:29.134Z,4.68
2024-04-18T19:36:52.967Z,4.66
2024-04-18T19:45:17.221Z,4.61
2024-04-18T19:53:41.176Z,4.62
2024-04-18T20:02:07.808Z,4.57
2024-04-18T20:10:31.883Z,4.43
2024-04-18T20:18:55.558Z,4.35
2024-04-18T20:27:20.935Z,4.39
2024-04-18T20:35:44.198Z,4.36
2024-04-18T20:44:06.827Z,4.24
2024-04-18T20:52:29.916Z,4.09
2024-04-18T21:00:52.716Z,4.07
2024-04-18T21:09:15.526Z,3.88
2024-04-18T21:17:38.184Z,3.59
2024-04-18T21:26:00.755Z,3.38
2024-04-18T21:34:23.392Z,3.37
2024-04-18T21:42:45.985Z,3.34
2024-04-18T21:51:08.538Z,3.22
2024-04-18T21:59:32.261Z,3.08
2024-04-18T22:08:00.627Z,3.02
2024-04-18T22:16:23.262Z,2.90
2024-04-18T22:24:45.843Z,2.68
2024-04-18T22:33:08.503Z,2.48
2024-04-18T22:41:31.145Z,2.39
2024-04-18T22:49:53.653Z,2.30
2024-04-18T22:58:16.166Z,2.13
2024-04-18T23:06:57.298Z,1.91
2024-04-18T23:15:19.883Z,1.80
2024-04-18T23:23:42.448Z,1.68
2024-04-18T23:32:06.107Z,1.54
2024-04-18T23:40:28.603Z,1.50
2024-04-18T23:48:51.338Z,1.39
2024-04-18T23:57:14.220Z,1.23
